Time;durP1;ratioP1;P1;durP2;ratioP2;P2;SDS_P1;SDS_P2;PMS_P1;PMS_P2;Temp;Humidity;BMP_temperature;BMP_pressure;BME280_temperature;BME280_humidity;BME280_pressure;Samples;Min_cycle;Max_cycle;Signal;HPM_P1;HPM_P2
2023/12/25 00:02:06;;;;;;;1.00;1.00;;;9.70;99.90;;;;;;5028921;28;20225;-67
2023/12/25 00:04:31;;;;;;;2.10;0.87;;;9.70;99.90;;;;;;5029032;28;20512;-67
2023/12/25 00:06:57;;;;;;;1.37;1.27;;;9.70;99.90;;;;;;5028699;28;20520;-67
2023/12/25 00:09:23;;;;;;;3.60;0.83;;;9.70;99.90;;;;;;5029210;28;20174;-67
2023/12/25 00:11:49;;;;;;;1.07;0.97;;;9.70;99.90;;;;;;5027722;28;20635;-67
2023/12/25 00:14:14;;;;;;;1.53;1.27;;;9.70;99.90;;;;;;5027553;28;20417;-67
2023/12/25 00:16:40;;;;;;;1.60;1.50;;;9.60;99.90;;;;;;5028654;28;20179;-67
2023/12/25 00:19:09;;;;;;;1.23;1.13;;;9.70;99.90;;;;;;5028842;28;20159;-67
2023/12/25 00:21:36;;;;;;;1.50;1.17;;;9.70;99.90;;;;;;5027824;28;20509;-67
2023/12/25 00:24:01;;;;;;;2.40;0.90;;;9.70;99.90;;;;;;5027340;28;20457;-67
2023/12/25 00:26:27;;;;;;;2.60;1.40;;;9.70;99.90;;;;;;5028727;28;20513;-67
2023/12/25 00:28:52;;;;;;;1.47;1.10;;;9.70;99.90;;;;;;5028651;28;20189;-67
2023/12/25 00:31:18;;;;;;;2.10;1.40;;;9.70;99.90;;;;;;5028673;28;20262;-67
2023/12/25 00:33:43;;;;;;;1.17;1.10;;;9.70;99.90;;;;;;5028545;28;20178;-67
2023/12/25 00:36:11;;;;;;;1.03;0.93;;;9.70;99.90;;;;;;5028512;28;20312;-67
2023/12/25 00:38:36;;;;;;;0.93;0.90;;;9.70;99.90;;;;;;5028388;28;20273;-67
2023/12/25 00:41:01;;;;;;;1.53;1.30;;;9.70;99.90;;;;;;5028497;28;20969;-67
2023/12/25 00:43:27;;;;;;;4.27;1.07;;;9.70;99.90;;;;;;5028228;28;20240;-67
2023/12/25 00:45:52;;;;;;;2.37;1.27;;;9.70;99.90;;;;;;5028446;28;20241;-67
2023/12/25 00:48:18;;;;;;;1.30;0.93;;;9.70;99.90;;;;;;5028243;28;20599;-67
2023/12/25 00:50:43;;;;;;;1.00;0.87;;;9.70;99.90;;;;;;5029428;28;20192;-67
2023/12/25 00:53:09;;;;;;;1.00;0.80;;;9.70;99.90;;;;;;5031785;28;20174;-67
2023/12/25 00:55:34;;;;;;;1.47;1.00;;;9.70;99.90;;;;;;5031708;28;20177;-67
2023/12/25 00:58:00;;;;;;;3.40;1.10;;;9.60;99.90;;;;;;5031383;28;20686;-67
2023/12/25 01:00:25;;;;;;;1.37;1.17;;;9.60;99.90;;;;;;5031658;28;20178;-67
2023/12/25 01:02:51;;;;;;;1.63;1.03;;;9.60;99.90;;;;;;5031550;28;20646;-67
2023/12/25 01:05:17;;;;;;;1.00;0.90;;;9.70;99.90;;;;;;5031843;28;20175;-67
2023/12/25 01:07:43;;;;;;;0.97;0.90;;;9.70;99.90;;;;;;5031302;28;20189;-67
2023/12/25 01:10:09;;;;;;;1.80;0.90;;;9.60;99.90;;;;;;5031468;28;20781;-67
2023/12/25 01:12:34;;;;;;;1.00;0.90;;;9.60;99.90;;;;;;5031459;28;20204;-67
2023/12/25 01:15:00;;;;;;;1.10;1.00;;;9.60;99.90;;;;;;5031685;28;20433;-67
2023/12/25 01:17:25;;;;;;;1.60;0.90;;;9.60;99.90;;;;;;5031171;28;20198;-67
2023/12/25 01:19:51;;;;;;;0.97;0.93;;;9.70;99.90;;;;;;5031334;28;20175;-67
2023/12/25 01:22:17;;;;;;;0.80;0.80;;;9.60;99.90;;;;;;5031544;28;20231;-67
2023/12/25 01:24:43;;;;;;;1.63;1.10;;;9.60;99.90;;;;;;5031338;28;20234;-67
2023/12/25 01:27:08;;;;;;;1.20;1.00;;;9.60;99.90;;;;;;5030983;28;20937;-67
2023/12/25 01:29:34;;;;;;;1.40;1.30;;;9.60;99.90;;;;;;5031236;28;20211;-67
2023/12/25 01:31:59;;;;;;;1.27;1.13;;;9.60;99.90;;;;;;5031389;28;20183;-67
2023/12/25 01:34:25;;;;;;;1.57;0.87;;;9.60;99.90;;;;;;5031190;28;20175;-67
2023/12/25 01:36:50;;;;;;;0.97;0.80;;;9.60;99.90;;;;;;5030818;28;20203;-67
2023/12/25 01:39:16;;;;;;;2.73;1.30;;;9.60;99.90;;;;;;5031071;28;20175;-67
2023/12/25 01:41:41;;;;;;;1.63;1.10;;;9.60;99.90;;;;;;5030814;28;20265;-67
2023/12/25 01:44:07;;;;;;;1.20;1.10;;;9.60;99.90;;;;;;5031314;28;20620;-67
2023/12/25 01:46:33;;;;;;;1.70;1.03;;;9.60;99.90;;;;;;5030775;28;20163;-67
2023/12/25 01:48:58;;;;;;;0.90;0.80;;;9.60;99.90;;;;;;5031017;28;20538;-67
2023/12/25 01:51:24;;;;;;;1.07;0.93;;;9.60;99.90;;;;;;5030801;28;20171;-67
2023/12/25 01:53:50;;;;;;;1.17;1.00;;;9.60;99.90;;;;;;5030886;28;20174;-67
2023/12/25 01:56:16;;;;;;;1.50;1.13;;;9.50;99.90;;;;;;5030684;28;20227;-67
2023/12/25 01:58:42;;;;;;;1.23;1.13;;;9.60;99.90;;;;;;5030614;28;20256;-66
2023/12/25 02:01:07;;;;;;;1.40;1.13;;;9.60;99.90;;;;;;5031059;28;21109;-67
2023/12/25 02:03:33;;;;;;;0.90;0.90;;;9.50;99.90;;;;;;5030616;28;20194;-67
2023/12/25 02:06:00;;;;;;;0.80;0.80;;;9.50;99.90;;;;;;5030657;28;20174;-67
2023/12/25 02:08:26;;;;;;;1.33;1.00;;;9.50;99.90;;;;;;5030481;28;20226;-67
2023/12/25 02:10:52;;;;;;;3.03;1.13;;;9.50;99.90;;;;;;5030646;28;20850;-67
2023/12/25 02:13:17;;;;;;;1.30;1.00;;;9.50;99.90;;;;;;5030512;28;20421;-67
2023/12/25 02:15:44;;;;;;;0.83;0.83;;;9.40;99.90;;;;;;5030494;28;20220;-67
2023/12/25 02:18:09;;;;;;;2.20;1.20;;;9.50;99.90;;;;;;5030282;28;20592;-66
2023/12/25 02:20:35;;;;;;;1.20;1.10;;;9.50;99.90;;;;;;5030541;28;20417;-67
2023/12/25 02:23:05;;;;;;;1.23;0.80;;;9.50;99.90;;;;;;5031514;28;20198;-67
2023/12/25 02:25:33;;;;;;;1.50;1.40;;;9.40;99.90;;;;;;5030307;28;20169;-67
2023/12/25 02:28:02;;;;;;;2.77;0.70;;;9.50;99.90;;;;;;5030080;28;20441;-67
2023/12/25 02:30:28;;;;;;;3.40;1.23;;;9.50;99.90;;;;;;5030176;28;20428;-67
2023/12/25 02:32:54;;;;;;;1.73;0.80;;;9.50;99.90;;;;;;5030258;28;20433;-67
2023/12/25 02:35:20;;;;;;;1.00;1.00;;;9.50;99.90;;;;;;5030268;28;20985;-67
2023/12/25 02:37:46;;;;;;;1.17;1.10;;;9.40;99.90;;;;;;5029973;28;20198;-67
2023/12/25 02:40:11;;;;;;;1.13;1.03;;;9.40;99.90;;;;;;5030153;28;20800;-67
2023/12/25 02:42:37;;;;;;;2.50;1.30;;;9.40;99.90;;;;;;5030352;28;20206;-67
2023/12/25 02:45:03;;;;;;;0.80;0.80;;;9.40;99.90;;;;;;5030009;28;20189;-67
2023/12/25 02:47:28;;;;;;;1.20;1.10;;;9.40;99.90;;;;;;5029818;28;20209;-67
2023/12/25 02:49:54;;;;;;;0.87;0.83;;;9.40;99.90;;;;;;5029927;28;20692;-67
2023/12/25 02:52:19;;;;;;;1.37;1.27;;;9.40;99.90;;;;;;5029987;28;20182;-67
2023/12/25 02:54:45;;;;;;;0.73;0.73;;;9.30;99.90;;;;;;5029877;28;20211;-67
2023/12/25 02:57:10;;;;;;;1.10;1.00;;;9.30;99.90;;;;;;5029904;28;20281;-67
2023/12/25 02:59:36;;;;;;;3.10;0.87;;;9.30;99.90;;;;;;5030275;28;20178;-68
2023/12/25 03:02:02;;;;;;;2.10;1.57;;;9.30;99.90;;;;;;5029715;28;20546;-67
2023/12/25 03:04:27;;;;;;;1.07;1.00;;;9.40;99.90;;;;;;5029743;28;20298;-67
2023/12/25 03:06:53;;;;;;;1.00;0.90;;;9.40;99.90;;;;;;5029617;28;20518;-67
2023/12/25 03:09:18;;;;;;;1.00;0.90;;;9.30;99.90;;;;;;5029641;28;20170;-67
2023/12/25 03:11:45;;;;;;;1.50;1.00;;;9.30;99.90;;;;;;5029462;28;20171;-67
2023/12/25 03:14:10;;;;;;;1.20;1.10;;;9.30;99.90;;;;;;5029250;28;20202;-67
2023/12/25 03:16:36;;;;;;;1.23;1.13;;;9.30;99.90;;;;;;5029350;28;20494;-67
2023/12/25 03:19:01;;;;;;;7.33;0.90;;;9.30;99.90;;;;;;5029674;28;20174;-67
2023/12/25 03:21:27;;;;;;;2.13;1.00;;;9.30;99.90;;;;;;5029623;28;20174;-67
2023/12/25 03:23:52;;;;;;;1.20;1.10;;;9.30;99.90;;;;;;5029539;28;20194;-68
2023/12/25 03:26:18;;;;;;;0.80;0.80;;;9.30;99.90;;;;;;5029339;28;20174;-68
2023/12/25 03:28:44;;;;;;;1.00;0.90;;;9.30;99.90;;;;;;5029269;28;20613;-68
2023/12/25 03:31:10;;;;;;;1.13;1.03;;;9.30;99.90;;;;;;5029443;28;20174;-67
2023/12/25 03:33:36;;;;;;;0.90;0.80;;;9.40;99.90;;;;;;5029511;28;20174;-68
2023/12/25 03:36:03;;;;;;;1.70;1.30;;;9.40;99.90;;;;;;5029582;28;20463;-68
2023/12/25 03:38:28;;;;;;;1.30;0.90;;;9.40;99.90;;;;;;5029042;28;20448;-68
2023/12/25 03:40:54;;;;;;;1.03;0.90;;;9.40;99.90;;;;;;5029345;28;20421;-68
2023/12/25 03:43:19;;;;;;;0.90;0.73;;;9.40;99.90;;;;;;5029076;28;20679;-68
2023/12/25 03:45:45;;;;;;;1.03;0.93;;;9.40;99.90;;;;;;5029232;28;20244;-68
2023/12/25 03:48:11;;;;;;;0.60;0.60;;;9.40;99.90;;;;;;5028994;28;20205;-68
2023/12/25 03:50:36;;;;;;;2.50;1.27;;;9.40;99.90;;;;;;5029204;28;20537;-68
2023/12/25 03:53:02;;;;;;;1.30;0.80;;;9.40;99.90;;;;;;5028991;28;20253;-68
2023/12/25 03:55:27;;;;;;;1.10;0.80;;;9.40;99.90;;;;;;5029079;28;20265;-68
2023/12/25 03:57:53;;;;;;;2.30;1.07;;;9.50;99.90;;;;;;5028911;28;20243;-68
2023/12/25 04:00:19;;;;;;;1.10;1.00;;;9.40;99.90;;;;;;5029042;28;20933;-68
2023/12/25 04:02:44;;;;;;;1.43;1.10;;;9.40;99.90;;;;;;5029130;28;20581;-68
2023/12/25 04:05:10;;;;;;;1.03;1.00;;;9.50;99.90;;;;;;5029023;28;20231;-68
2023/12/25 04:07:36;;;;;;;1.13;0.80;;;9.50;99.90;;;;;;5029431;28;20193;-67
2023/12/25 04:10:02;;;;;;;1.10;1.00;;;9.50;99.90;;;;;;5029199;28;20179;-67
2023/12/25 04:12:27;;;;;;;1.03;1.03;;;9.50;99.90;;;;;;5028855;28;20925;-68
2023/12/25 04:14:53;;;;;;;1.53;1.03;;;9.50;99.90;;;;;;5028849;28;20470;-68
2023/12/25 04:17:18;;;;;;;2.57;1.20;;;9.50;99.90;;;;;;5027422;28;20197;-68
2023/12/25 04:19:44;;;;;;;1.47;1.30;;;9.60;99.90;;;;;;5029111;28;20178;-67
2023/12/25 04:22:10;;;;;;;1.63;0.80;;;9.50;99.90;;;;;;5028756;28;20202;-67
2023/12/25 04:24:35;;;;;;;0.70;0.70;;;9.50;99.90;;;;;;5029576;28;20159;-68
2023/12/25 04:27:01;;;;;;;1.63;1.17;;;9.50;99.90;;;;;;5031929;28;20194;-67
2023/12/25 04:29:26;;;;;;;1.27;1.13;;;9.40;99.90;;;;;;5031025;28;20170;-68
2023/12/25 04:31:52;;;;;;;2.40;1.10;;;9.40;99.90;;;;;;5032140;28;20175;-68
2023/12/25 04:34:17;;;;;;;1.10;0.97;;;9.40;99.90;;;;;;5032372;28;20174;-68
2023/12/25 04:36:43;;;;;;;1.00;1.00;;;9.40;99.90;;;;;;5031772;28;20280;-67
2023/12/25 04:39:08;;;;;;;1.07;0.90;;;9.40;99.90;;;;;;5032077;28;20181;-67
2023/12/25 04:41:34;;;;;;;0.97;0.73;;;9.40;99.90;;;;;;5031935;28;20631;-68
2023/12/25 04:43:59;;;;;;;1.23;0.90;;;9.40;99.90;;;;;;5032002;28;20201;-68
2023/12/25 04:46:25;;;;;;;3.63;0.90;;;9.40;99.90;;;;;;5031791;28;20703;-67
2023/12/25 04:48:50;;;;;;;0.63;0.63;;;9.30;99.90;;;;;;5031930;28;20177;-67
2023/12/25 04:51:16;;;;;;;1.37;1.00;;;9.40;99.90;;;;;;5032002;28;20725;-67
2023/12/25 04:53:41;;;;;;;2.30;1.10;;;9.30;99.90;;;;;;5032153;28;20635;-67
2023/12/25 04:56:11;;;;;;;0.73;0.73;;;9.30;99.90;;;;;;5031863;28;20203;-67
2023/12/25 04:58:37;;;;;;;1.47;0.90;;;9.30;99.90;;;;;;5031611;28;20189;-67
2023/12/25 05:01:04;;;;;;;1.20;1.00;;;9.30;99.90;;;;;;5032061;28;20791;-67
2023/12/25 05:03:30;;;;;;;1.83;1.00;;;9.30;99.90;;;;;;5031781;28;20460;-67
2023/12/25 05:05:55;;;;;;;0.90;0.90;;;9.30;99.90;;;;;;5031771;28;20783;-67
2023/12/25 05:08:21;;;;;;;0.90;0.80;;;9.30;99.90;;;;;;5031351;28;20182;-67
2023/12/25 05:10:46;;;;;;;0.80;0.80;;;9.30;99.90;;;;;;5031581;28;20174;-67
2023/12/25 05:13:12;;;;;;;2.00;0.97;;;9.30;99.90;;;;;;5031454;28;20174;-67
2023/12/25 05:15:37;;;;;;;1.77;0.90;;;9.30;99.90;;;;;;5031459;28;20700;-67
2023/12/25 05:18:03;;;;;;;1.33;0.83;;;9.30;99.90;;;;;;5031462;28;20194;-67
2023/12/25 05:20:28;;;;;;;1.60;1.30;;;9.30;99.90;;;;;;5031470;28;20171;-67
2023/12/25 05:22:54;;;;;;;1.50;1.30;;;9.30;99.90;;;;;;5031454;28;20547;-67
2023/12/25 05:25:19;;;;;;;1.10;0.90;;;9.30;99.90;;;;;;5031635;28;20667;-67
2023/12/25 05:27:45;;;;;;;1.07;1.00;;;9.30;99.90;;;;;;5031283;28;20201;-67
2023/12/25 05:30:11;;;;;;;0.90;0.90;;;9.20;99.90;;;;;;5031229;28;20239;-67
2023/12/25 05:32:37;;;;;;;0.70;0.70;;;9.30;99.90;;;;;;5031186;28;20205;-67
2023/12/25 05:35:04;;;;;;;0.87;0.80;;;9.30;99.90;;;;;;5029653;28;20417;-67
2023/12/25 05:37:30;;;;;;;1.33;1.00;;;9.20;99.90;;;;;;5030748;28;20444;-67
2023/12/25 05:39:56;;;;;;;1.63;1.20;;;9.20;99.90;;;;;;5031137;28;20448;-67
2023/12/25 05:42:22;;;;;;;1.23;1.00;;;9.20;99.90;;;;;;5030997;28;20952;-67
2023/12/25 05:44:47;;;;;;;1.20;0.90;;;9.20;99.90;;;;;;5031063;28;20171;-67
2023/12/25 05:47:13;;;;;;;1.00;1.00;;;9.20;99.90;;;;;;5030918;28;20182;-67
2023/12/25 05:49:39;;;;;;;0.70;0.70;;;9.10;99.90;;;;;;5030994;28;20173;-67
2023/12/25 05:52:04;;;;;;;3.13;0.97;;;9.10;99.90;;;;;;5030926;28;20646;-67
2023/12/25 05:54:30;;;;;;;1.80;0.80;;;9.10;99.90;;;;;;5030872;28;20635;-67
2023/12/25 05:56:55;;;;;;;0.60;0.60;;;9.10;99.90;;;;;;5081417;22;20312;-68
2023/12/25 05:59:20;;;;;;;1.00;0.90;;;9.00;99.90;;;;;;5065498;28;20231;-68
2023/12/25 06:01:46;;;;;;;1.20;1.10;;;9.00;99.90;;;;;;5073674;28;20198;-68
2023/12/25 06:04:12;;;;;;;1.83;0.93;;;9.10;99.90;;;;;;5073582;28;20200;-68
2023/12/25 06:06:37;;;;;;;2.00;1.00;;;9.00;99.90;;;;;;5073186;28;20189;-68
2023/12/25 06:09:03;;;;;;;1.17;0.80;;;9.10;99.90;;;;;;5073578;28;20169;-68
2023/12/25 06:11:28;;;;;;;1.00;0.80;;;9.10;99.90;;;;;;5073493;28;20177;-68
2023/12/25 06:13:54;;;;;;;1.30;0.90;;;9.10;99.90;;;;;;5055451;28;20221;-68
2023/12/25 06:16:19;;;;;;;1.67;1.57;;;9.10;99.90;;;;;;5055276;28;20219;-68
2023/12/25 06:18:45;;;;;;;0.87;0.80;;;9.10;99.90;;;;;;5073144;28;20561;-68
2023/12/25 06:21:14;;;;;;;1.10;1.00;;;9.10;99.90;;;;;;5073239;28;20188;-68
2023/12/25 06:23:39;;;;;;;1.10;0.97;;;9.10;99.90;;;;;;5073266;28;20262;-68
2023/12/25 06:26:05;;;;;;;1.80;1.10;;;9.00;99.90;;;;;;5073154;28;20443;-68
2023/12/25 06:28:30;;;;;;;1.40;1.20;;;9.00;99.90;;;;;;5072848;28;20248;-68
2023/12/25 06:30:56;;;;;;;1.10;1.00;;;9.00;99.90;;;;;;5073017;28;20173;-68
2023/12/25 06:33:21;;;;;;;2.20;0.97;;;8.90;99.90;;;;;;5073276;28;20173;-68
2023/12/25 06:35:46;;;;;;;1.67;1.13;;;8.90;99.90;;;;;;5072976;28;20188;-68
2023/12/25 06:38:13;;;;;;;1.70;1.40;;;8.90;99.90;;;;;;5072673;28;20256;-68
2023/12/25 06:40:39;;;;;;;0.83;0.83;;;8.90;99.90;;;;;;5072907;28;20200;-68
2023/12/25 06:43:04;;;;;;;0.80;0.80;;;8.90;99.90;;;;;;5072718;28;20482;-68
2023/12/25 06:45:30;;;;;;;1.43;1.00;;;8.90;99.90;;;;;;5072727;28;20208;-67
2023/12/25 06:47:55;;;;;;;0.97;0.90;;;9.00;99.90;;;;;;5071829;28;20192;-68
2023/12/25 06:50:21;;;;;;;1.13;1.03;;;8.90;99.90;;;;;;5054827;28;20175;-68
2023/12/25 06:52:46;;;;;;;1.10;1.00;;;8.90;99.90;;;;;;5072437;28;20610;-68
2023/12/25 06:55:12;;;;;;;1.03;1.03;;;8.90;99.90;;;;;;5072495;28;20196;-68
2023/12/25 06:57:38;;;;;;;2.00;1.10;;;8.90;99.90;;;;;;5072447;28;20706;-68
2023/12/25 07:00:04;;;;;;;1.83;1.40;;;8.80;99.90;;;;;;5072542;28;20551;-68
2023/12/25 07:02:31;;;;;;;2.63;1.30;;;8.80;99.90;;;;;;5072461;28;20269;-68
2023/12/25 07:04:56;;;;;;;1.87;1.07;;;8.80;99.90;;;;;;5072353;28;20513;-68
2023/12/25 07:07:22;;;;;;;1.13;0.90;;;8.70;99.90;;;;;;5072137;28;20181;-68
2023/12/25 07:09:47;;;;;;;0.80;0.80;;;8.70;99.90;;;;;;5072453;28;20308;-68
2023/12/25 07:12:13;;;;;;;1.13;1.03;;;8.70;99.90;;;;;;5072389;28;20627;-69
2023/12/25 07:14:38;;;;;;;1.10;1.00;;;8.60;99.90;;;;;;5072271;28;20185;-68
2023/12/25 07:17:07;;;;;;;1.43;1.30;;;8.70;99.90;;;;;;5054050;28;20200;-68
2023/12/25 07:19:33;;;;;;;1.50;1.17;;;8.70;99.90;;;;;;5072265;28;20192;-67
2023/12/25 07:21:59;;;;;;;1.30;1.20;;;8.60;99.90;;;;;;5072142;28;20461;-68
2023/12/25 07:24:24;;;;;;;1.70;1.30;;;8.70;99.90;;;;;;5072231;28;20230;-68
2023/12/25 07:26:50;;;;;;;1.20;1.10;;;8.70;99.90;;;;;;5071862;28;20193;-68
2023/12/25 07:29:16;;;;;;;1.20;1.10;;;8.70;99.90;;;;;;5072115;28;20168;-68
2023/12/25 07:31:42;;;;;;;0.90;0.90;;;8.80;99.90;;;;;;5072114;28;20527;-68
2023/12/25 07:34:07;;;;;;;1.20;1.10;;;8.80;99.90;;;;;;5072086;28;20414;-68
2023/12/25 07:36:33;;;;;;;1.50;1.40;;;8.80;99.90;;;;;;5071688;28;20262;-68
2023/12/25 07:38:58;;;;;;;1.17;1.07;;;8.80;99.90;;;;;;5072124;28;20169;-68
2023/12/25 07:41:24;;;;;;;1.13;1.10;;;8.80;99.90;;;;;;5072122;28;20634;-68
2023/12/25 07:43:49;;;;;;;1.00;1.00;;;8.90;99.90;;;;;;5071823;28;20226;-68
2023/12/25 07:46:15;;;;;;;2.50;2.20;;;8.90;99.90;;;;;;5071820;28;20689;-68
2023/12/25 07:48:41;;;;;;;1.77;1.20;;;8.90;99.90;;;;;;5071872;28;20626;-67
2023/12/25 07:51:06;;;;;;;1.97;1.10;;;8.90;99.90;;;;;;5072292;28;20173;-68
2023/12/25 07:53:32;;;;;;;0.83;0.83;;;9.00;99.90;;;;;;5071693;28;20176;-68
2023/12/25 07:55:57;;;;;;;2.27;1.67;;;9.10;99.90;;;;;;5071706;28;20270;-68
2023/12/25 07:58:23;;;;;;;1.87;1.43;;;9.20;99.90;;;;;;5072162;28;20524;-68
2023/12/25 08:00:48;;;;;;;2.40;1.27;;;9.30;99.90;;;;;;5076134;28;20173;-67
2023/12/25 08:03:15;;;;;;;1.67;1.37;;;9.30;99.90;;;;;;5075887;28;20633;-68
2023/12/25 08:05:40;;;;;;;2.73;1.10;;;9.20;99.90;;;;;;5075985;28;20188;-68
2023/12/25 08:08:06;;;;;;;1.20;0.93;;;9.30;99.90;;;;;;5075542;28;20498;-68
2023/12/25 08:10:32;;;;;;;5.70;1.50;;;9.30;99.90;;;;;;5075830;28;20218;-67
2023/12/25 08:12:58;;;;;;;2.70;1.90;;;9.50;99.90;;;;;;5075976;28;20183;-68
2023/12/25 08:15:25;;;;;;;1.50;1.40;;;9.70;99.90;;;;;;5075664;28;20216;-68
2023/12/25 08:17:51;;;;;;;2.20;2.00;;;10.10;99.90;;;;;;5075340;28;20966;-68
2023/12/25 08:20:17;;;;;;;1.27;0.90;;;10.40;99.90;;;;;;5075654;28;20451;-68
2023/12/25 08:22:42;;;;;;;1.30;0.93;;;10.30;99.90;;;;;;5075546;28;20199;-68
2023/12/25 08:25:08;;;;;;;1.77;1.47;;;10.20;99.90;;;;;;5075421;28;20200;-68
2023/12/25 08:27:33;;;;;;;1.57;1.10;;;10.10;99.90;;;;;;5075330;28;20596;-68
2023/12/25 08:29:59;;;;;;;1.30;1.20;;;10.00;99.90;;;;;;5075521;28;20176;-68
2023/12/25 08:32:24;;;;;;;3.37;1.33;;;9.80;99.90;;;;;;5075546;28;20543;-68
2023/12/25 08:34:50;;;;;;;1.60;1.50;;;9.70;99.90;;;;;;5075267;28;20177;-68
2023/12/25 08:37:15;;;;;;;1.37;1.07;;;9.70;99.90;;;;;;5075029;28;20185;-67
2023/12/25 08:39:41;;;;;;;2.80;1.43;;;9.80;99.90;;;;;;5075203;28;20703;-68
2023/12/25 08:42:07;;;;;;;1.50;0.90;;;9.90;99.90;;;;;;5075128;28;20173;-67
2023/12/25 08:44:32;;;;;;;1.20;1.00;;;9.90;99.90;;;;;;5075111;28;20477;-68
2023/12/25 08:46:59;;;;;;;2.30;1.33;;;9.80;99.90;;;;;;5074722;28;20243;-68
2023/12/25 08:49:25;;;;;;;1.10;1.00;;;9.90;99.90;;;;;;5075062;28;20180;-68
2023/12/25 08:51:51;;;;;;;2.50;1.50;;;9.90;99.90;;;;;;5074712;28;20491;-68
2023/12/25 08:54:17;;;;;;;2.17;1.50;;;10.00;99.90;;;;;;5075045;28;20846;-68
2023/12/25 08:56:43;;;;;;;1.63;1.40;;;10.10;99.90;;;;;;5074496;28;20205;-68
2023/12/25 08:59:09;;;;;;;1.50;1.23;;;10.20;99.90;;;;;;5074852;28;20790;-68
2023/12/25 09:01:35;;;;;;;1.40;1.30;;;10.40;99.90;;;;;;5074829;28;20177;-68
2023/12/25 09:04:00;;;;;;;2.70;1.30;;;11.20;99.90;;;;;;5074712;28;20235;-68
2023/12/25 09:06:26;;;;;;;1.43;1.33;;;11.80;99.90;;;;;;5074308;28;20197;-68
2023/12/25 09:08:51;;;;;;;1.60;1.33;;;12.30;99.90;;;;;;5074913;28;20176;-68
2023/12/25 09:11:17;;;;;;;1.27;1.27;;;12.30;99.90;;;;;;5073913;28;20208;-68
2023/12/25 09:13:44;;;;;;;1.07;0.97;;;11.90;99.90;;;;;;5074607;28;20180;-68
2023/12/25 09:16:10;;;;;;;1.03;0.93;;;11.70;99.90;;;;;;5074456;28;20435;-68
2023/12/25 09:18:35;;;;;;;1.30;1.20;;;11.30;99.90;;;;;;5074242;28;20414;-67
2023/12/25 09:21:01;;;;;;;1.20;0.93;;;11.10;99.90;;;;;;5074478;28;20411;-68
2023/12/25 09:23:26;;;;;;;1.47;1.30;;;11.00;99.90;;;;;;5074336;28;20205;-68
2023/12/25 09:25:52;;;;;;;3.57;1.43;;;11.00;99.90;;;;;;5074355;28;20655;-68
2023/12/25 09:28:18;;;;;;;1.43;1.30;;;11.10;99.90;;;;;;5074156;28;20774;-68
2023/12/25 09:30:44;;;;;;;1.43;1.33;;;11.20;99.90;;;;;;5074253;28;20165;-68
2023/12/25 09:33:10;;;;;;;1.20;1.10;;;11.30;99.90;;;;;;5074250;28;20173;-68
2023/12/25 09:35:35;;;;;;;1.20;1.10;;;11.40;99.90;;;;;;5074079;28;20450;-68
2023/12/25 09:38:01;;;;;;;1.27;1.17;;;11.60;99.90;;;;;;5073853;28;20231;-68
2023/12/25 09:40:27;;;;;;;1.60;1.50;;;12.20;99.90;;;;;;5074190;28;20242;-68
2023/12/25 09:42:53;;;;;;;2.00;1.30;;;13.00;99.90;;;;;;5074066;28;20496;-68
2023/12/25 09:45:20;;;;;;;2.47;1.73;;;14.10;99.90;;;;;;5073992;28;20189;-68
2023/12/25 09:47:47;;;;;;;4.03;1.50;;;14.50;99.90;;;;;;5073721;28;20191;-68
2023/12/25 09:50:13;;;;;;;1.07;1.07;;;14.20;99.90;;;;;;5073895;28;20994;-68
2023/12/25 09:52:39;;;;;;;1.43;1.27;;;13.80;99.90;;;;;;5073857;28;20415;-68
2023/12/25 09:55:05;;;;;;;1.90;1.77;;;13.80;99.90;;;;;;5073821;28;20426;-68
2023/12/25 09:57:32;;;;;;;1.33;1.20;;;14.00;99.90;;;;;;5073565;28;20180;-68
2023/12/25 09:59:59;;;;;;;1.60;1.50;;;13.80;99.90;;;;;;5073733;28;20429;-68
2023/12/25 10:02:28;;;;;;;1.50;1.40;;;13.80;99.90;;;;;;5073554;28;20537;-68
2023/12/25 10:04:53;;;;;;;1.23;1.13;;;13.40;99.90;;;;;;5073753;28;20419;-68
2023/12/25 10:07:22;;;;;;;1.40;1.30;;;13.50;99.90;;;;;;5073273;28;20490;-68
2023/12/25 10:09:49;;;;;;;1.27;1.17;;;14.00;99.90;;;;;;5073610;28;20222;-68
2023/12/25 10:12:14;;;;;;;1.40;1.30;;;14.70;99.90;;;;;;5073512;28;20415;-68
2023/12/25 10:14:40;;;;;;;3.20;1.50;;;15.10;99.90;;;;;;5073455;28;20525;-68
2023/12/25 10:17:05;;;;;;;1.40;1.30;;;15.60;99.90;;;;;;5072928;28;20275;-66
2023/12/25 10:19:31;;;;;;;1.37;1.23;;;16.00;99.90;;;;;;5073304;28;20173;-67
2023/12/25 10:21:56;;;;;;;1.70;1.60;;;15.60;99.90;;;;;;5072418;28;20242;-65
2023/12/25 10:24:29;;;;;;;1.50;1.40;;;15.50;99.90;;;;;;5073047;28;20636;-65
2023/12/25 10:26:57;;;;;;;1.57;1.47;;;15.20;99.90;;;;;;5072890;28;20273;-66
2023/12/25 10:29:33;;;;;;;1.80;1.70;;;14.90;99.90;;;;;;5073137;28;20423;-66
2023/12/25 10:32:15;;;;;;;2.30;2.10;;;15.00;99.90;;;;;;5073103;28;20442;-66
2023/12/25 10:34:41;;;;;;;1.80;1.40;;;15.90;99.90;;;;;;5073090;28;20965;-66
2023/12/25 10:37:06;;;;;;;2.10;2.00;;;17.30;99.90;;;;;;5072619;28;20431;-66
2023/12/25 10:39:33;;;;;;;1.60;1.50;;;18.00;96.10;;;;;;5073033;28;20172;-66
2023/12/25 10:41:59;;;;;;;1.53;1.43;;;18.20;94.10;;;;;;5072947;28;20222;-66
2023/12/25 10:44:26;;;;;;;1.27;1.10;;;18.90;91.50;;;;;;5072840;28;20522;-67
2023/12/25 10:46:52;;;;;;;1.73;1.63;;;19.50;90.10;;;;;;5072490;28;20431;-66
2023/12/25 10:49:19;;;;;;;1.70;1.10;;;20.00;84.50;;;;;;5072924;28;20547;-66
2023/12/25 10:51:46;;;;;;;2.50;1.20;;;20.20;81.40;;;;;;5072655;28;20778;-66
2023/12/25 10:54:13;;;;;;;1.07;1.07;;;20.50;80.60;;;;;;5072650;28;20407;-66
2023/12/25 10:56:45;;;;;;;1.43;1.33;;;20.30;79.30;;;;;;5072155;28;20955;-67
2023/12/25 10:59:15;;;;;;;1.10;1.10;;;20.60;77.00;;;;;;5072570;28;20429;-66
2023/12/25 11:01:47;;;;;;;1.80;0.90;;;20.30;76.40;;;;;;5072407;28;20426;-66
2023/12/25 11:04:16;;;;;;;1.63;0.90;;;20.00;77.70;;;;;;5072424;28;20451;-66
2023/12/25 11:06:47;;;;;;;1.07;1.07;;;19.40;78.90;;;;;;5071996;28;20509;-66
2023/12/25 11:09:20;;;;;;;1.33;1.23;;;19.40;81.00;;;;;;5072393;28;20771;-66
2023/12/25 11:11:46;;;;;;;1.20;1.10;;;19.80;79.20;;;;;;5072443;28;20469;-67
2023/12/25 11:14:12;;;;;;;1.17;1.17;;;19.90;77.70;;;;;;5072358;28;20451;-67
2023/12/25 11:16:38;;;;;;;0.93;0.93;;;20.80;76.10;;;;;;5072028;28;20886;-66
2023/12/25 11:19:04;;;;;;;1.43;1.33;;;20.30;73.60;;;;;;5072320;28;20173;-66
2023/12/25 11:21:33;;;;;;;1.83;1.73;;;19.40;77.60;;;;;;5072222;28;20646;-66
2023/12/25 11:24:00;;;;;;;1.40;1.27;;;18.80;81.70;;;;;;5072101;28;20451;-66
2023/12/25 11:26:29;;;;;;;1.10;1.10;;;18.60;81.80;;;;;;5071843;28;20439;-66
2023/12/25 11:28:56;;;;;;;1.17;1.07;;;17.40;90.40;;;;;;5072102;28;20423;-66
2023/12/25 11:31:22;;;;;;;1.53;1.43;;;17.10;92.60;;;;;;5072143;28;20407;-66
2023/12/25 11:33:48;;;;;;;1.30;1.20;;;17.30;93.10;;;;;;5071772;28;20419;-66
2023/12/25 11:36:15;;;;;;;0.93;0.83;;;17.20;93.20;;;;;;5071790;28;20781;-66
2023/12/25 11:38:42;;;;;;;1.33;0.87;;;16.20;96.40;;;;;;5071977;28;20423;-65
2023/12/25 11:41:17;;;;;;;0.87;0.80;;;15.50;99.90;;;;;;5072009;28;20419;-65
2023/12/25 11:43:45;;;;;;;1.20;1.20;;;15.00;99.90;;;;;;5071983;28;20453;-66
2023/12/25 11:46:19;;;;;;;1.47;1.10;;;15.60;99.90;;;;;;5071900;28;20474;-66
2023/12/25 11:48:47;;;;;;;2.37;1.50;;;15.30;99.90;;;;;;5071798;28;20443;-66
2023/12/25 11:51:25;;;;;;;1.27;1.17;;;14.50;99.90;;;;;;5071857;28;20419;-66
2023/12/25 11:53:58;;;;;;;1.97;1.20;;;14.10;99.90;;;;;;5071884;28;20414;-65
2023/12/25 11:56:24;;;;;;;2.40;1.10;;;14.10;99.90;;;;;;5072030;28;20520;-66
2023/12/25 11:58:52;;;;;;;1.80;1.47;;;13.80;99.90;;;;;;5071671;28;20802;-66
2023/12/25 12:01:18;;;;;;;0.90;0.90;;;13.50;99.90;;;;;;5071839;28;20419;-66
2023/12/25 12:03:48;;;;;;;1.17;0.90;;;13.10;99.90;;;;;;5071805;28;20469;-66
2023/12/25 12:06:15;;;;;;;1.00;1.00;;;12.70;99.90;;;;;;5071586;28;20435;-66
2023/12/25 12:08:42;;;;;;;1.63;0.80;;;12.60;99.90;;;;;;5071607;28;20426;-66
2023/12/25 12:11:13;;;;;;;1.37;1.27;;;12.60;99.90;;;;;;5071768;28;20412;-66
2023/12/25 12:13:39;;;;;;;0.77;0.77;;;12.90;99.90;;;;;;5071726;28;21106;-66
2023/12/25 12:16:05;;;;;;;1.20;1.03;;;13.00;99.90;;;;;;5071507;28;20445;-66
2023/12/25 12:18:31;;;;;;;1.43;1.33;;;12.90;99.90;;;;;;5071545;28;20509;-66
2023/12/25 12:20:58;;;;;;;1.20;1.07;;;12.90;99.90;;;;;;5071630;28;20502;-66
2023/12/25 12:23:24;;;;;;;1.33;0.87;;;12.90;99.90;;;;;;5071705;28;20280;-66
2023/12/25 12:25:50;;;;;;;1.20;1.10;;;12.90;99.90;;;;;;5071832;28;20535;-66
2023/12/25 12:28:16;;;;;;;1.40;0.90;;;13.10;99.90;;;;;;5071261;28;20415;-66
2023/12/25 12:30:42;;;;;;;0.80;0.80;;;12.80;99.90;;;;;;5071471;28;20286;-66
2023/12/25 12:33:08;;;;;;;0.70;0.70;;;13.00;99.90;;;;;;5071580;28;21023;-66
2023/12/25 12:35:34;;;;;;;0.83;0.80;;;13.20;99.90;;;;;;5071494;28;20307;-66
2023/12/25 12:38:00;;;;;;;1.30;1.10;;;13.30;99.90;;;;;;5071132;28;20497;-66
2023/12/25 12:40:27;;;;;;;1.30;1.20;;;13.40;99.90;;;;;;5071572;28;20214;-66
2023/12/25 12:42:53;;;;;;;1.00;0.80;;;13.40;99.90;;;;;;5071293;28;20475;-66
2023/12/25 12:45:20;;;;;;;0.90;0.90;;;13.60;99.90;;;;;;5071666;28;20440;-66
2023/12/25 12:47:45;;;;;;;1.13;1.07;;;13.30;99.90;;;;;;5074833;28;20235;-66